Time;durP1;ratioP1;P1;durP2;ratioP2;P2;SDS_P1;SDS_P2;PMS_P1;PMS_P2;Temp;Humidity;BMP_temperature;BMP_pressure;BME280_temperature;BME280_humidity;BME280_pressure;Samples;Min_cycle;Max_cycle;Signal;HPM_P1;HPM_P2
2022/05/20 00:01:47;;;;;;;23.90;20.10;;;;;;;19.32;66.13;100511.84;5013813;28;20065;-63
2022/05/20 00:04:33;;;;;;;23.27;20.00;;;;;;;19.32;66.29;100511.84;5013762;28;20120;-63
2022/05/20 00:07:17;;;;;;;24.63;20.75;;;;;;;19.31;66.26;100506.63;5012441;28;20044;-63
2022/05/20 00:10:01;;;;;;;26.88;21.13;;;;;;;19.30;66.23;100507.53;5014069;28;20044;-63
2022/05/20 00:12:46;;;;;;;25.67;20.95;;;;;;;19.30;66.38;100510.16;5014136;28;20076;-62
2022/05/20 00:15:30;;;;;;;23.63;20.90;;;;;;;19.30;65.95;100518.03;5012572;28;20430;-64
2022/05/20 00:18:17;;;;;;;30.20;23.08;;;;;;;19.30;66.43;100505.78;5013803;28;20512;-64
2022/05/20 00:21:03;;;;;;;25.27;21.17;;;;;;;19.29;66.11;100509.28;5012777;28;20048;-64
2022/05/20 00:23:50;;;;;;;23.92;20.83;;;;;;;19.29;66.20;100509.28;5013896;28;20073;-64
2022/05/20 00:26:40;;;;;;;27.33;21.63;;;;;;;19.30;66.21;100503.16;5013642;28;20108;-64
2022/05/20 00:29:24;;;;;;;23.05;19.90;;;;;;;19.29;66.36;100488.28;5012907;28;20139;-63
2022/05/20 00:32:14;;;;;;;26.27;21.80;;;;;;;19.29;66.31;100479.50;5012908;28;20117;-63
2022/05/20 00:34:59;;;;;;;24.52;21.13;;;;;;;19.29;66.22;100484.75;5012937;28;20045;-64
2022/05/20 00:37:45;;;;;;;26.85;21.55;;;;;;;19.28;66.28;100472.50;5012373;28;20057;-64
2022/05/20 00:40:30;;;;;;;25.58;22.80;;;;;;;19.26;66.15;100469.03;5012863;28;20100;-63
2022/05/20 00:43:29;;;;;;;30.50;22.98;;;;;;;19.25;66.20;100469.91;5012890;28;20048;-63
2022/05/20 00:46:19;;;;;;;29.63;21.20;;;;;;;19.25;66.12;100473.44;5014946;28;20057;-63
2022/05/20 00:49:15;;;;;;;28.35;23.88;;;;;;;19.24;66.18;100471.69;5016247;28;20148;-63
2022/05/20 00:51:59;;;;;;;25.58;21.52;;;;;;;19.24;66.29;100465.53;5017465;28;20500;-63
2022/05/20 00:54:52;;;;;;;26.27;22.42;;;;;;;19.24;66.14;100460.28;5017218;28;20107;-63
2022/05/20 00:57:45;;;;;;;25.35;22.58;;;;;;;19.23;66.28;100454.19;5017278;28;20132;-64
2022/05/20 01:00:32;;;;;;;26.02;23.00;;;;;;;19.24;66.20;100457.66;5016099;28;20077;-64
2022/05/20 01:03:24;;;;;;;31.52;23.30;;;;;;;19.22;66.14;100457.69;5015928;28;20065;-63
2022/05/20 01:06:14;;;;;;;32.28;24.48;;;;;;;19.22;66.24;100462.09;5016251;28;20052;-63
2022/05/20 01:08:58;;;;;;;29.38;23.83;;;;;;;19.22;66.00;100467.34;5016108;28;20140;-64
2022/05/20 01:11:42;;;;;;;27.08;21.63;;;;;;;19.21;66.13;100457.72;5016758;28;20068;-63
2022/05/20 01:14:26;;;;;;;27.20;21.17;;;;;;;19.21;65.98;100455.09;5016656;28;20096;-63
2022/05/20 01:17:10;;;;;;;31.10;21.40;;;;;;;19.20;66.10;100456.00;5016967;28;20096;-63
2022/05/20 01:19:59;;;;;;;25.85;22.48;;;;;;;19.17;66.25;100451.63;5017142;28;20409;-64
2022/05/20 01:22:53;;;;;;;26.17;22.88;;;;;;;19.19;65.99;100451.63;5016124;28;20096;-63
2022/05/20 01:25:42;;;;;;;27.55;22.95;;;;;;;19.15;66.08;100453.44;5016616;28;20048;-64
2022/05/20 01:28:31;;;;;;;25.75;21.52;;;;;;;19.13;66.14;100453.44;5015947;28;20057;-65
2022/05/20 01:31:18;;;;;;;23.33;20.05;;;;;;;19.14;66.15;100441.19;5016346;28;20433;-63
2022/05/20 01:34:05;;;;;;;25.17;21.15;;;;;;;19.13;65.95;100442.06;5015652;28;20112;-64
2022/05/20 01:36:52;;;;;;;25.90;20.90;;;;;;;19.11;66.23;100442.06;5016509;28;20057;-64
2022/05/20 01:39:42;;;;;;;23.30;19.92;;;;;;;19.11;66.08;100439.44;5016181;28;20571;-63
2022/05/20 01:42:36;;;;;;;25.70;20.77;;;;;;;19.11;66.22;100441.22;5015787;28;20536;-63
2022/05/20 01:45:35;;;;;;;27.03;20.03;;;;;;;19.09;66.11;100427.22;5014862;28;20176;-64
2022/05/20 01:49:07;;;;;;;24.85;20.10;;;;;;;19.06;66.21;100417.63;5016233;28;20069;-63
2022/05/20 01:52:04;;;;;;;22.80;19.48;;;;;;;19.02;66.38;100410.69;4990566;28;20052;-64
2022/05/20 01:54:58;;;;;;;22.98;19.48;;;;;;;18.98;66.27;100401.97;5014954;28;20045;-64
2022/05/20 01:58:20;;;;;;;23.02;19.15;;;;;;;18.95;66.21;100412.53;5013917;28;20185;-64
2022/05/20 02:01:16;;;;;;;22.67;18.40;;;;;;;18.96;66.33;100422.13;5013458;28;20122;-64
2022/05/20 02:04:15;;;;;;;22.50;18.13;;;;;;;18.95;66.23;100416.88;5014763;28;20053;-65
2022/05/20 02:07:08;;;;;;;20.15;18.02;;;;;;;18.96;66.34;100423.88;5014478;28;20072;-64
2022/05/20 02:10:04;;;;;;;22.35;19.10;;;;;;;18.96;66.34;100413.38;5015211;28;20405;-63
2022/05/20 02:12:54;;;;;;;22.33;18.92;;;;;;;18.97;66.18;100407.22;5015102;28;20077;-63
2022/05/20 02:15:50;;;;;;;20.98;18.67;;;;;;;18.95;66.19;100398.50;5015985;28;20161;-64
2022/05/20 02:18:50;;;;;;;25.67;19.10;;;;;;;18.91;66.56;100389.78;5015506;28;20524;-64
2022/05/20 02:21:39;;;;;;;20.55;17.05;;;;;;;18.89;66.54;100388.06;5015848;28;20115;-64
2022/05/20 02:24:27;;;;;;;22.88;18.77;;;;;;;18.86;66.54;100396.81;5014560;28;20072;-63
2022/05/20 02:27:22;;;;;;;21.75;17.83;;;;;;;18.86;66.48;100384.59;5014647;28;20092;-64
2022/05/20 02:30:13;;;;;;;20.65;18.02;;;;;;;18.86;66.35;100381.97;5014744;28;20053;-64
2022/05/20 02:33:14;;;;;;;21.52;18.67;;;;;;;18.85;66.55;100389.84;5014154;28;20048;-63
2022/05/20 02:36:19;;;;;;;23.75;18.02;;;;;;;18.86;66.42;100384.59;5014365;28;20463;-65
2022/05/20 02:39:15;;;;;;;20.33;17.80;;;;;;;18.86;66.44;100381.97;5014291;28;20470;-63
2022/05/20 02:41:59;;;;;;;21.75;17.73;;;;;;;18.86;66.43;100399.47;5015091;28;20044;-65
2022/05/20 02:44:43;;;;;;;21.70;18.27;;;;;;;18.85;66.60;100406.47;5015161;28;20134;-63
2022/05/20 02:47:31;;;;;;;20.38;16.75;;;;;;;18.87;66.37;100396.81;5015423;28;20084;-63
2022/05/20 02:50:18;;;;;;;23.33;18.88;;;;;;;18.87;66.29;100399.47;5015257;28;20049;-65
2022/05/20 02:53:04;;;;;;;22.65;18.17;;;;;;;18.86;66.31;100402.97;5014294;28;20516;-64
2022/05/20 02:55:51;;;;;;;28.67;18.90;;;;;;;18.85;66.27;100393.34;5014915;28;20041;-64
2022/05/20 03:04:43;;;;;;;25.05;17.70;;;;;;;18.85;66.18;100390.72;5015122;28;20516;-63
2022/05/20 03:07:27;;;;;;;24.25;19.00;;;;;;;18.85;66.26;100382.84;5015131;28;20139;-63
2022/05/20 03:10:11;;;;;;;22.63;18.70;;;;;;;18.84;66.26;100377.63;5013425;28;20126;-64
2022/05/20 03:12:59;;;;;;;22.60;18.23;;;;;;;18.83;66.06;100383.75;5014485;28;20128;-64
2022/05/20 03:15:46;;;;;;;21.42;16.75;;;;;;;18.82;66.29;100368.91;5013597;28;20060;-64
2022/05/20 03:18:38;;;;;;;22.33;18.10;;;;;;;18.81;66.29;100365.38;5014633;28;20096;-63
2022/05/20 03:21:25;;;;;;;21.23;17.88;;;;;;;18.80;66.36;100374.16;5013378;28;20045;-63
2022/05/20 03:24:13;;;;;;;21.50;18.00;;;;;;;18.79;66.16;100366.31;5014534;28;20048;-63
2022/05/20 03:27:01;;;;;;;20.63;17.35;;;;;;;18.76;66.68;100364.59;5013463;28;20402;-64
2022/05/20 03:29:49;;;;;;;26.48;19.55;;;;;;;18.74;66.45;100357.59;5013483;28;20512;-64
2022/05/20 03:32:33;;;;;;;21.65;18.25;;;;;;;18.70;66.52;100362.03;5014460;28;20075;-63
2022/05/20 03:35:17;;;;;;;24.05;19.50;;;;;;;18.69;66.46;100344.56;5014371;28;20056;-63
2022/05/20 03:38:01;;;;;;;20.85;18.17;;;;;;;18.68;66.42;100341.06;5013644;28;20121;-64
2022/05/20 03:40:51;;;;;;;23.77;17.98;;;;;;;18.65;66.46;100334.97;5014190;28;20122;-64
2022/05/20 03:43:38;;;;;;;23.85;18.05;;;;;;;18.62;66.68;100351.63;5012973;28;20044;-62
2022/05/20 03:46:26;;;;;;;22.55;18.00;;;;;;;18.62;66.48;100353.38;5012643;28;20481;-64
2022/05/20 03:49:14;;;;;;;20.55;18.35;;;;;;;18.59;66.77;100335.91;5014460;28;20405;-63
2022/05/20 03:51:58;;;;;;;21.33;18.08;;;;;;;18.60;66.96;100336.81;5012993;28;20147;-64
2022/05/20 03:54:44;;;;;;;22.27;19.20;;;;;;;18.58;66.75;100333.31;5012634;28;20049;-63
2022/05/20 03:57:28;;;;;;;21.75;18.98;;;;;;;18.56;67.00;100339.47;5013169;28;20435;-64
2022/05/20 04:00:16;;;;;;;21.60;18.25;;;;;;;18.55;66.65;100326.34;5013183;28;20408;-64
2022/05/20 04:03:00;;;;;;;24.35;19.27;;;;;;;18.51;66.64;100332.53;5013526;28;20065;-65
2022/05/20 04:05:47;;;;;;;23.55;19.00;;;;;;;18.50;66.88;100334.28;5013466;28;20449;-63
2022/05/20 04:08:31;;;;;;;25.63;19.08;;;;;;;18.51;66.71;100332.53;5014204;28;20056;-63
2022/05/20 04:11:16;;;;;;;23.40;20.33;;;;;;;18.51;66.96;100322.03;5013464;28;20104;-64
2022/05/20 04:14:06;;;;;;;22.65;19.50;;;;;;;18.48;66.95;100333.41;5012858;28;20072;-63
2022/05/20 04:16:57;;;;;;;26.27;20.33;;;;;;;18.49;67.00;100331.69;5013157;28;20053;-63
2022/05/20 04:19:43;;;;;;;23.70;18.48;;;;;;;18.46;66.96;100332.56;5013165;28;20095;-66
2022/05/20 04:22:33;;;;;;;25.23;20.00;;;;;;;18.44;66.97;100331.75;5013694;28;20108;-65
2022/05/20 04:25:20;;;;;;;24.85;20.13;;;;;;;18.43;66.98;100330.00;5012803;28;20040;-65
2022/05/20 04:28:07;;;;;;;27.38;20.73;;;;;;;18.45;67.04;100311.59;5012246;28;20049;-63
2022/05/20 04:30:59;;;;;;;25.88;21.58;;;;;;;18.43;67.06;100319.50;5013391;28;20049;-63
2022/05/20 04:33:49;;;;;;;29.67;21.58;;;;;;;18.45;67.10;100320.34;5012893;28;20104;-63
2022/05/20 04:36:35;;;;;;;26.63;20.63;;;;;;;18.47;66.90;100310.69;5012940;28;20175;-63
2022/05/20 04:39:24;;;;;;;24.90;20.33;;;;;;;18.49;66.99;100308.06;5013317;28;20509;-64
2022/05/20 04:48:25;;;;;;;27.10;21.08;;;;;;;18.50;66.93;100301.94;5013286;28;20563;-63
2022/05/20 04:51:09;;;;;;;26.85;20.58;;;;;;;18.50;66.88;100291.44;5012733;28;20054;-63
2022/05/20 04:57:00;;;;;;;30.85;21.98;;;;;;;18.48;67.14;100278.31;5013717;28;20064;-63
2022/05/20 04:59:46;;;;;;;28.63;21.98;;;;;;;18.49;67.09;100277.44;5013637;28;20142;-63
2022/05/20 05:02:34;;;;;;;24.73;20.63;;;;;;;18.49;66.92;100280.06;5013420;28;20104;-62
2022/05/20 05:05:22;;;;;;;28.83;22.23;;;;;;;18.50;67.01;100278.31;5012445;28;20052;-62
2022/05/20 05:08:09;;;;;;;28.38;21.13;;;;;;;18.49;67.16;100281.81;5012548;28;20096;-63
2022/05/20 05:10:53;;;;;;;27.67;21.92;;;;;;;18.49;67.01;100287.94;5012229;28;20049;-65
2022/05/20 05:13:37;;;;;;;24.00;20.58;;;;;;;18.49;67.06;100284.44;5013506;28;20548;-63
2022/05/20 05:16:21;;;;;;;27.08;21.80;;;;;;;18.49;67.08;100282.69;5013452;28;20461;-64
2022/05/20 05:19:08;;;;;;;28.70;21.48;;;;;;;18.50;66.91;100279.16;5013504;28;20100;-64
2022/05/20 05:22:00;;;;;;;29.85;22.45;;;;;;;18.49;67.10;100287.06;5012838;28;20536;-63
2022/05/20 05:24:44;;;;;;;27.77;21.88;;;;;;;18.50;66.91;100280.94;5011946;28;20578;-63
2022/05/20 05:27:30;;;;;;;28.05;21.85;;;;;;;18.50;67.16;100283.56;5012983;28;20532;-63
2022/05/20 05:30:16;;;;;;;27.83;21.83;;;;;;;18.50;67.27;100283.56;5013174;28;20505;-63
2022/05/20 05:33:03;;;;;;;27.60;22.00;;;;;;;18.50;67.25;100281.78;5015246;28;20052;-64
2022/05/20 05:35:48;;;;;;;28.05;23.40;;;;;;;18.50;67.11;100276.53;5016699;28;20108;-64
2022/05/20 05:38:32;;;;;;;35.42;22.88;;;;;;;18.50;67.19;100278.31;5016778;28;20511;-63
2022/05/20 05:41:20;;;;;;;28.80;23.33;;;;;;;18.48;67.35;100273.06;5016304;28;20128;-63
2022/05/20 05:44:10;;;;;;;27.90;23.25;;;;;;;18.48;67.48;100273.06;5016736;28;20053;-64
2022/05/20 05:46:55;;;;;;;28.02;22.17;;;;;;;18.49;67.34;100273.94;5014985;28;20100;-63
2022/05/20 05:49:39;;;;;;;;;;;;;;;18.48;67.18;100265.19;5016565;28;20049;-63
2022/05/20 05:52:23;;;;;;;32.13;24.70;;;;;;;18.47;67.24;100260.84;5015324;28;20004;-63
2022/05/20 05:55:07;;;;;;;28.98;22.67;;;;;;;18.49;67.39;100258.19;5015986;28;20848;-64
2022/05/20 05:57:56;;;;;;;31.10;23.63;;;;;;;18.49;67.31;100258.19;5014814;28;20044;-63
2022/05/20 06:00:44;;;;;;;32.00;23.83;;;;;;;18.49;67.33;100250.34;5015513;28;20433;-63
2022/05/20 06:03:29;;;;;;;35.13;25.30;;;;;;;18.48;67.25;100249.44;5015498;28;20053;-64
2022/05/20 06:06:16;;;;;;;29.15;23.73;;;;;;;18.49;67.25;100253.81;5015958;28;20129;-63
2022/05/20 06:09:00;;;;;;;32.72;24.85;;;;;;;18.49;67.36;100256.44;5015974;28;20061;-64
2022/05/20 06:11:44;;;;;;;30.80;24.60;;;;;;;18.49;67.28;100261.69;5016022;28;20056;-64
2022/05/20 06:14:29;;;;;;;33.97;25.58;;;;;;;18.51;67.62;100266.94;5016174;28;20061;-63
2022/05/20 06:17:18;;;;;;;34.03;24.20;;;;;;;18.51;67.48;100266.94;5015298;28;20100;-63
2022/05/20 06:20:06;;;;;;;31.38;24.15;;;;;;;18.53;67.44;100273.03;5015115;28;20520;-64
2022/05/20 06:22:50;;;;;;;31.60;24.20;;;;;;;18.53;67.57;100276.50;5015484;28;20137;-63
2022/05/20 06:25:37;;;;;;;;;;;;;;;18.53;67.48;100265.16;5015589;28;20401;-64
2022/05/20 06:28:21;;;;;;;32.83;24.40;;;;;;;18.52;67.53;100261.66;5015148;28;19944;-64
2022/05/20 06:31:08;;;;;;;36.33;26.00;;;;;;;18.54;67.53;100256.38;5014953;28;20559;-63
2022/05/20 06:33:52;;;;;;;34.83;25.83;;;;;;;18.54;67.47;100238.88;5015241;28;20057;-64
2022/05/20 06:39:49;;;;;;;31.55;24.95;;;;;;;18.56;67.80;100247.59;5014943;28;20421;-63
2022/05/20 06:42:35;;;;;;;31.75;24.92;;;;;;;18.58;67.51;100236.22;5015171;28;20053;-63
2022/05/20 06:45:29;;;;;;;32.67;24.13;;;;;;;18.58;67.77;100233.59;5014940;28;20418;-64
2022/05/20 06:48:13;;;;;;;31.67;25.10;;;;;;;18.58;67.72;100229.19;5015006;28;20620;-63
2022/05/20 06:51:00;;;;;;;30.25;25.13;;;;;;;18.59;67.72;100214.34;5015311;28;20069;-62
2022/05/20 06:53:45;;;;;;;29.15;23.42;;;;;;;18.60;67.76;100213.44;5014340;28;20052;-63
2022/05/20 06:56:30;;;;;;;31.30;25.52;;;;;;;18.59;67.69;100207.31;5014439;28;20076;-63
2022/05/20 06:59:17;;;;;;;38.30;25.38;;;;;;;18.59;67.91;100198.59;5014558;28;20516;-63
2022/05/20 07:02:01;;;;;;;37.60;25.58;;;;;;;18.58;67.92;100200.34;5014026;28;20068;-59
2022/05/20 07:04:45;;;;;;;33.65;25.40;;;;;;;18.61;67.80;100204.69;5014741;28;20096;-62
2022/05/20 07:07:29;;;;;;;33.55;24.00;;;;;;;18.61;67.80;100213.41;5013629;28;20424;-64
2022/05/20 07:10:15;;;;;;;32.15;24.63;;;;;;;18.61;68.00;100221.28;5014776;28;20576;-63
2022/05/20 07:12:59;;;;;;;30.02;23.48;;;;;;;18.61;68.06;100218.66;5013717;28;20472;-62
2022/05/20 07:15:46;;;;;;;37.40;27.77;;;;;;;18.63;67.96;100213.38;5014021;28;20087;-63
2022/05/20 07:18:31;;;;;;;31.35;23.75;;;;;;;18.63;67.68;100221.25;5014211;28;20056;-63
2022/05/20 07:21:16;;;;;;;34.47;25.20;;;;;;;18.62;68.00;100212.53;5014931;28;20134;-63
2022/05/20 07:24:01;;;;;;;32.15;24.02;;;;;;;18.63;67.81;100214.25;5014141;28;20104;-63
2022/05/20 07:26:45;;;;;;;30.33;24.00;;;;;;;18.64;67.91;100213.38;5014604;28;20076;-63
2022/05/20 07:29:29;;;;;;;33.80;26.00;;;;;;;18.63;67.91;100195.00;5014108;28;20609;-64
2022/05/20 07:32:16;;;;;;;32.80;23.40;;;;;;;18.64;67.85;100183.63;5013291;28;20176;-64
2022/05/20 07:35:00;;;;;;;29.50;23.50;;;;;;;18.63;67.85;100182.75;5014550;28;20520;-63
2022/05/20 07:37:44;;;;;;;28.45;21.60;;;;;;;18.64;68.00;100181.00;5014710;28;20064;-63
2022/05/20 07:40:28;;;;;;;30.73;23.05;;;;;;;18.65;67.93;100177.47;5014096;28;20073;-64
2022/05/20 07:43:14;;;;;;;33.42;23.98;;;;;;;18.65;67.85;100162.63;5014264;28;20100;-62
2022/05/20 07:46:02;;;;;;;32.35;23.55;;;;;;;18.66;67.89;100169.59;5013644;28;20053;-62
2022/05/20 07:48:49;;;;;;;31.63;24.38;;;;;;;18.67;68.11;100168.72;5013426;28;20451;-63
2022/05/20 07:51:36;;;;;;;32.58;24.02;;;;;;;18.68;68.22;100167.81;5013472;28;20049;-64
2022/05/20 07:54:23;;;;;;;31.83;23.48;;;;;;;18.70;68.21;100168.63;5013245;28;20049;-63
2022/05/20 07:57:14;;;;;;;31.98;24.48;;;;;;;18.72;68.08;100164.25;5012895;28;20084;-62
2022/05/20 07:59:58;;;;;;;31.77;24.38;;;;;;;18.73;68.02;100170.38;5013698;28;20048;-63
2022/05/20 08:02:46;;;;;;;34.50;25.35;;;;;;;18.72;68.01;100163.38;5013960;28;20092;-64
2022/05/20 08:05:31;;;;;;;33.88;23.92;;;;;;;18.72;67.88;100172.13;5012723;28;20049;-64
2022/05/20 08:08:20;;;;;;;33.83;23.27;;;;;;;18.72;67.77;100168.63;5013477;28;20108;-63
2022/05/20 08:11:06;;;;;;;34.45;23.88;;;;;;;18.73;68.09;100165.13;5012764;28;20053;-63
2022/05/20 08:13:51;;;;;;;36.38;25.40;;;;;;;18.72;68.31;100153.75;5014110;28;20048;-63
2022/05/20 08:16:43;;;;;;;35.67;25.17;;;;;;;18.74;68.52;100152.84;5013596;28;20049;-63
2022/05/20 08:19:30;;;;;;;27.40;21.70;;;;;;;18.77;68.13;100143.16;5013751;28;20052;-63
2022/05/20 08:22:17;;;;;;;37.75;24.60;;;;;;;18.77;68.15;100127.41;5013932;28;20052;-63
2022/05/20 08:25:01;;;;;;;35.72;25.83;;;;;;;18.77;68.36;100122.16;5013075;28;20551;-63
2022/05/20 08:27:48;;;;;;;35.92;26.17;;;;;;;18.78;68.36;100117.78;5013872;28;20100;-63
2022/05/20 08:30:35;;;;;;;37.42;28.02;;;;;;;18.80;68.41;100119.47;5013696;28;20084;-62
2022/05/20 08:33:24;;;;;;;37.83;27.77;;;;;;;18.80;68.74;100119.47;5012865;28;20120;-63
2022/05/20 08:36:09;;;;;;;28.83;23.10;;;;;;;18.82;68.13;100114.22;5012849;28;20485;-63
2022/05/20 08:38:53;;;;;;;37.08;27.73;;;;;;;18.83;68.52;100115.97;5013903;28;20056;-64
2022/05/20 08:41:51;;;;;;;33.95;26.27;;;;;;;18.82;68.53;100101.94;5013491;28;20110;-63
2022/05/20 08:44:36;;;;;;;36.22;26.83;;;;;;;18.83;68.86;100101.06;5013614;28;20041;-63
2022/05/20 08:47:22;;;;;;;35.38;26.45;;;;;;;18.84;68.70;100097.53;5012598;28;20140;-64
2022/05/20 08:50:13;;;;;;;37.95;26.05;;;;;;;18.88;68.46;100098.34;5013583;28;20087;-64
2022/05/20 08:53:00;;;;;;;31.70;24.08;;;;;;;18.89;68.64;100094.84;5012970;28;20092;-63
2022/05/20 08:55:45;;;;;;;43.50;27.58;;;;;;;18.90;68.40;100083.44;5013161;28;20076;-63
2022/05/20 08:58:30;;;;;;;37.80;27.27;;;;;;;18.94;68.70;100081.63;5013506;28;20126;-63
2022/05/20 09:01:24;;;;;;;32.83;26.08;;;;;;;18.94;68.53;100073.75;5012107;28;20057;-63
2022/05/20 09:04:14;;;;;;;41.28;29.30;;;;;;;18.96;68.81;100077.25;5012679;28;20045;-63
2022/05/20 09:07:03;;;;;;;34.35;25.08;;;;;;;18.96;68.27;100072.88;5013666;28;20100;-65
2022/05/20 09:09:56;;;;;;;36.00;25.20;;;;;;;18.94;68.76;100071.13;5015983;28;20052;-63
2022/05/20 09:12:42;;;;;;;44.58;30.08;;;;;;;18.96;69.03;100053.59;5016980;28;20080;-64
2022/05/20 09:15:44;;;;;;;42.58;29.88;;;;;;;18.98;69.14;100043.94;5016708;28;20061;-64
2022/05/20 09:18:36;;;;;;;34.65;26.10;;;;;;;18.98;68.51;100039.56;5016836;28;20532;-63
2022/05/20 09:21:33;;;;;;;44.22;27.10;;;;;;;18.99;68.78;100027.28;5016181;28;20398;-64
2022/05/20 09:24:22;;;;;;;35.28;24.75;;;;;;;19.00;68.82;100032.50;5015890;28;20130;-63
2022/05/20 09:27:20;;;;;;;35.85;24.42;;;;;;;19.02;68.63;100027.25;5015684;28;20052;-63
2022/05/20 09:30:14;;;;;;;33.38;25.48;;;;;;;19.02;68.70;100016.75;5016249;28;20049;-62
2022/05/20 09:33:14;;;;;;;33.08;24.40;;;;;;;19.03;68.68;100021.09;5016022;28;20049;-63
2022/05/20 09:36:04;;;;;;;37.72;25.65;;;;;;;19.05;68.94;100003.56;5015410;28;20045;-63
2022/05/20 09:38:52;;;;;;;35.40;24.75;;;;;;;19.05;68.84;100000.94;5016337;28;20057;-64
2022/05/20 09:41:51;;;;;;;38.47;25.02;;;;;;;19.07;68.93;99993.88;5015447;28;20099;-63
2022/05/20 09:44:45;;;;;;;36.08;24.75;;;;;;;19.10;68.90;99993.81;5016287;28;20053;-63
2022/05/20 09:47:31;;;;;;;37.75;25.92;;;;;;;19.10;68.98;99985.91;5015979;28;20116;-63
2022/05/20 09:50:29;;;;;;;33.72;24.13;;;;;;;19.11;68.58;99982.41;5015597;28;20100;-63
2022/05/20 09:54:02;;;;;;;35.20;25.60;;;;;;;19.13;68.70;99961.38;5015647;28;20056;-62
2022/05/20 09:57:03;;;;;;;28.95;21.65;;;;;;;19.12;68.71;99957.88;4996821;28;20045;-63
2022/05/20 09:59:54;;;;;;;33.83;23.25;;;;;;;19.13;68.72;99951.72;5015223;28;20048;-63
2022/05/20 10:02:45;;;;;;;33.95;22.77;;;;;;;19.16;68.83;99945.53;5015117;28;20096;-64
2022/05/20 10:05:45;;;;;;;28.10;20.75;;;;;;;19.16;68.77;99929.75;5015002;28;20163;-63
2022/05/20 10:08:34;;;;;;;29.15;19.55;;;;;;;19.19;68.74;99923.59;5015150;28;20053;-63
2022/05/20 10:11:29;;;;;;;27.55;21.13;;;;;;;19.17;68.46;99913.13;5015082;28;20631;-63
2022/05/20 10:14:24;;;;;;;27.83;18.27;;;;;;;19.19;68.83;99913.09;5015052;28;20501;-64
2022/05/20 10:17:27;;;;;;;26.75;17.83;;;;;;;19.20;68.50;99907.78;5015703;28;20064;-63
2022/05/20 10:20:28;;;;;;;27.80;19.90;;;;;;;19.21;68.70;99900.81;5015320;28;20072;-63
2022/05/20 10:23:41;;;;;;;24.33;17.75;;;;;;;19.21;68.62;99883.25;5015085;28;20049;-63
2022/05/20 10:27:23;;;;;;;24.33;17.67;;;;;;;19.21;68.73;99878.00;5005940;28;20199;-63
2022/05/20 10:33:37;;;;;;;22.75;14.57;;;;;;;19.23;68.64;99838.59;4978311;28;20430;-63
2022/05/20 10:36:54;;;;;;;25.20;14.95;;;;;;;19.24;68.75;99830.66;5015260;28;20045;-64
2022/05/20 10:39:51;;;;;;;20.73;14.65;;;;;;;19.26;68.84;99835.88;5004657;28;20088;-63
2022/05/20 10:42:53;;;;;;;18.35;14.00;;;;;;;19.27;68.79;99837.59;5015071;28;20053;-63
2022/05/20 10:49:10;;;;;;;16.27;12.38;;;;;;;19.26;68.69;99807.84;5015533;28;20057;-64
2022/05/20 10:52:10;;;;;;;16.20;13.18;;;;;;;19.24;68.88;99799.13;5015379;28;20041;-62
2022/05/20 10:55:04;;;;;;;15.90;12.48;;;;;;;19.24;68.73;99783.38;5015294;28;20115;-64
2022/05/20 10:58:07;;;;;;;15.45;11.27;;;;;;;19.24;68.56;99770.25;5014781;28;20099;-64
2022/05/20 11:01:01;;;;;;;14.20;11.07;;;;;;;19.26;69.01;99757.06;5014057;28;20437;-64
2022/05/20 11:03:52;;;;;;;16.27;10.98;;;;;;;19.25;68.68;99747.44;5014118;28;20100;-62
2022/05/20 11:07:00;;;;;;;14.15;10.45;;;;;;;19.24;68.80;99730.84;5013808;28;20124;-64
2022/05/20 11:10:03;;;;;;;13.43;10.57;;;;;;;19.24;68.65;99716.81;5014860;28;20092;-63
2022/05/20 11:13:25;;;;;;;14.02;10.82;;;;;;;19.23;68.61;99694.97;5014034;28;20052;-63
2022/05/20 11:16:22;;;;;;;11.48;9.63;;;;;;;19.22;68.53;99682.72;5014361;28;20053;-63
2022/05/20 11:19:40;;;;;;;10.63;9.10;;;;;;;19.23;68.73;99704.63;5014605;28;20073;-63
2022/05/20 11:22:56;;;;;;;11.15;9.02;;;;;;;19.21;68.67;99749.28;5013680;28;20103;-63
2022/05/20 11:25:47;;;;;;;15.38;8.63;;;;;;;19.23;69.27;99779.03;5014186;28;20425;-62
2022/05/20 11:29:03;;;;;;;11.85;8.70;;;;;;;19.27;69.38;99777.16;5013080;28;20108;-63
2022/05/20 11:31:53;;;;;;;11.48;8.82;;;;;;;19.32;69.94;99770.91;5004930;28;20097;-64
2022/05/20 11:35:08;;;;;;;9.70;7.32;;;;;;;19.39;69.66;99782.13;5013714;28;20397;-63
2022/05/20 11:38:02;;;;;;;8.77;7.72;;;;;;;19.44;70.04;99782.88;5013498;28;20132;-64
2022/05/20 11:40:46;;;;;;;;;;;;;;;19.51;70.10;99798.50;5013561;28;20084;-63
2022/05/20 11:43:45;;;;;;;12.85;7.55;;;;;;;19.56;70.60;99807.13;5013844;28;19920;-64
2022/05/20 11:47:06;;;;;;;10.13;8.05;;;;;;;19.63;70.81;99819.22;5012801;28;20048;-64
2022/05/20 11:50:16;;;;;;;23.42;9.88;;;;;;;19.68;70.67;99843.63;5013430;28;20052;-63
2022/05/20 11:53:11;;;;;;;11.32;7.70;;;;;;;19.70;71.30;99865.47;5014378;28;20045;-65
2022/05/20 11:56:08;;;;;;;14.27;9.13;;;;;;;19.69;71.34;99897.94;5013149;28;20096;-64
2022/05/20 11:59:20;;;;;;;14.77;8.43;;;;;;;19.67;71.19;99896.22;5014268;28;20130;-63
2022/05/20 12:02:08;;;;;;;13.57;7.97;;;;;;;19.63;71.45;99885.78;5012941;28;20131;-64
2022/05/20 12:05:03;;;;;;;12.82;8.02;;;;;;;19.60;71.63;99895.50;5012953;28;20053;-63
2022/05/20 12:07:52;;;;;;;14.77;7.00;;;;;;;19.58;71.77;99885.06;5013875;28;20096;-63
2022/05/20 12:10:53;;;;;;;10.45;6.40;;;;;;;19.57;71.72;99840.38;5014207;28;20088;-65
2022/05/20 12:13:59;;;;;;;10.77;6.32;;;;;;;19.54;71.61;99812.44;5014176;28;20104;-63
2022/05/20 12:17:03;;;;;;;7.85;5.72;;;;;;;19.51;71.76;99783.59;5012860;28;20053;-62
2022/05/20 12:26:20;;;;;;;8.70;6.55;;;;;;;19.42;71.59;99708.47;5013173;28;20052;-63
2022/05/20 12:29:39;;;;;;;8.98;5.95;;;;;;;19.42;71.52;99691.88;5012984;28;20077;-63
2022/05/20 12:32:41;;;;;;;9.93;6.47;;;;;;;19.41;71.60;99680.47;5012478;28;20052;-65
2022/05/20 12:35:35;;;;;;;8.82;6.13;;;;;;;19.39;71.63;99661.25;5012431;28;20052;-63
2022/05/20 12:38:26;;;;;;;8.73;6.85;;;;;;;19.39;72.17;99687.53;5013690;28;20045;-64
2022/05/20 12:41:51;;;;;;;8.52;6.43;;;;;;;19.41;72.22;99729.56;5012607;28;20148;-64
2022/05/20 12:44:40;;;;;;;10.48;6.95;;;;;;;19.40;71.83;99762.81;5015390;28;20057;-65
2022/05/20 12:47:34;;;;;;;8.00;6.22;;;;;;;19.40;72.20;99757.56;5016979;28;20052;-63
2022/05/20 12:50:26;;;;;;;11.82;6.65;;;;;;;19.42;72.22;99765.44;5016627;28;20097;-62
2022/05/20 12:53:17;;;;;;;11.32;7.35;;;;;;;19.42;72.03;99758.41;5016472;28;20456;-63
2022/05/20 12:56:07;;;;;;;10.35;7.00;;;;;;;19.41;72.11;99742.69;5017461;28;20056;-63
2022/05/20 12:59:17;;;;;;;9.73;7.20;;;;;;;19.42;72.15;99736.53;5016538;28;20057;-64
2022/05/20 13:02:14;;;;;;;12.07;7.68;;;;;;;19.39;72.28;99750.59;5016075;28;20119;-65
2022/05/20 13:05:25;;;;;;;13.73;7.75;;;;;;;19.41;72.21;99772.44;5017193;28;20516;-64
2022/05/20 13:08:19;;;;;;;10.40;7.65;;;;;;;19.41;72.35;99775.06;5016267;28;20088;-64
2022/05/20 13:11:17;;;;;;;11.10;8.25;;;;;;;19.42;72.61;99782.06;5015949;28;20413;-63
2022/05/20 13:14:04;;;;;;;11.32;7.93;;;;;;;19.44;72.62;99774.16;5017238;28;20111;-63
2022/05/20 13:16:55;;;;;;;14.77;7.03;;;;;;;19.44;72.51;99772.38;5016385;28;20061;-64
2022/05/20 13:19:53;;;;;;;13.07;7.57;;;;;;;19.45;72.46;99760.09;5015744;28;20073;-63
2022/05/20 13:22:57;;;;;;;11.35;6.57;;;;;;;19.46;72.57;99756.59;5017130;28;20048;-65
2022/05/20 13:25:44;;;;;;;11.25;6.72;;;;;;;19.45;72.62;99766.22;5016741;28;20508;-63
2022/05/20 13:28:34;;;;;;;8.45;7.15;;;;;;;19.47;72.77;99779.31;5016897;28;20138;-64
2022/05/20 13:31:26;;;;;;;11.63;7.50;;;;;;;19.46;72.63;99778.44;5016097;28;20470;-63
2022/05/20 13:34:13;;;;;;;9.02;6.57;;;;;;;19.47;72.55;99780.19;5015713;28;20587;-64
2022/05/20 13:36:57;;;;;;;8.30;6.57;;;;;;;19.49;72.80;99780.13;5015953;28;20640;-63